createdAt,value
2017-11-30T00:00:55.753Z,99678.98
2017-11-30T00:01:58.203Z,99675.03
2017-11-30T00:03:00.675Z,99672.45
2017-11-30T00:04:03.143Z,99674.00
2017-11-30T00:05:05.600Z,99670.85
2017-11-30T00:06:08.060Z,99669.25
2017-11-30T00:07:10.538Z,99669.65
2017-11-30T00:08:13.014Z,99670.05
2017-11-30T00:09:15.473Z,99669.65
2017-11-30T00:10:17.950Z,99671.20
2017-11-30T00:11:20.403Z,99674.13
2017-11-30T00:12:22.868Z,99675.84
2017-11-30T00:13:25.354Z,99672.87
2017-11-30T00:14:27.817Z,99669.72
2017-11-30T00:15:30.283Z,99667.72
2017-11-30T00:16:32.763Z,99672.98
2017-11-30T00:17:35.225Z,99671.03
2017-11-30T00:18:37.691Z,99666.28
2017-11-30T00:19:40.170Z,99672.76
2017-11-30T00:20:42.620Z,99669.44
2017-11-30T00:21:45.085Z,99670.98
2017-11-30T00:22:47.565Z,99668.63
2017-11-30T00:23:50.041Z,99671.95
2017-11-30T00:24:52.510Z,99675.28
2017-11-30T00:25:55.003Z,99673.11
2017-11-30T00:26:57.478Z,99669.52
2017-11-30T00:27:59.946Z,99678.52
2017-11-30T00:29:02.422Z,99669.30
2017-11-30T00:30:04.916Z,99673.59
2017-11-30T00:31:07.372Z,99674.56
2017-11-30T00:32:09.824Z,99671.59
2017-11-30T00:33:12.299Z,99672.16
2017-11-30T00:34:14.757Z,99674.11
2017-11-30T00:35:17.216Z,99672.11
2017-11-30T00:36:19.668Z,99678.18
2017-11-30T00:37:22.134Z,99677.73
2017-11-30T00:38:24.588Z,99676.98
2017-11-30T00:39:27.063Z,99679.67
2017-11-30T00:40:29.533Z,99679.27
2017-11-30T00:41:31.987Z,99680.02
2017-11-30T00:42:46.391Z,99680.99
2017-11-30T00:43:48.863Z,99681.17
2017-11-30T00:44:51.342Z,99682.31
2017-11-30T00:45:53.935Z,99681.11
2017-11-30T00:46:56.404Z,99681.69
2017-11-30T00:47:58.894Z,99677.73
2017-11-30T00:49:01.452Z,99675.56
2017-11-30T00:50:04.023Z,99676.27
2017-11-30T00:51:06.485Z,99670.95
2017-11-30T00:52:08.941Z,99663.68
2017-11-30T00:53:11.397Z,99663.63
2017-11-30T00:54:13.860Z,99663.80
2017-11-30T00:55:16.319Z,99664.38
2017-11-30T00:56:18.791Z,99659.84
2017-11-30T00:57:21.244Z,99657.27
2017-11-30T00:58:23.697Z,99662.14
2017-11-30T00:59:26.152Z,99657.05
2017-11-30T01:00:28.622Z,99662.72
2017-11-30T01:01:31.090Z,99667.01
2017-11-30T01:02:33.557Z,99668.95
2017-11-30T01:03:36.013Z,99666.37
2017-11-30T01:04:38.476Z,99666.95
2017-11-30T01:05:40.928Z,99656.94
2017-11-30T01:06:43.402Z,99663.00
2017-11-30T01:07:45.860Z,99652.58
2017-11-30T01:08:48.337Z,99657.51
2017-11-30T01:09:50.815Z,99655.33
2017-11-30T01:10:53.295Z,99655.16
2017-11-30T01:11:55.765Z,99652.41
2017-11-30T01:12:58.224Z,99657.11
2017-11-30T01:14:00.680Z,99649.84
2017-11-30T01:15:03.135Z,99653.95
2017-11-30T01:16:05.594Z,99651.38
2017-11-30T01:17:08.081Z,99655.51
2017-11-30T01:18:10.565Z,99657.05
2017-11-30T01:19:13.046Z,99653.11
2017-11-30T01:20:15.504Z,99653.67
2017-11-30T01:21:27.790Z,99651.07
2017-11-30T01:22:30.284Z,99653.59
2017-11-30T01:23:32.741Z,99653.77
2017-11-30T01:24:35.201Z,99652.56
2017-11-30T01:25:37.656Z,99654.11
2017-11-30T01:26:40.111Z,99661.78
2017-11-30T01:27:42.635Z,99662.52
2017-11-30T01:28:45.093Z,99665.27
2017-11-30T01:29:47.569Z,99662.92
2017-11-30T01:30:50.029Z,99661.15
2017-11-30T01:31:52.484Z,99663.32
2017-11-30T01:32:54.975Z,99662.34
2017-11-30T01:33:57.447Z,99667.04
2017-11-30T01:34:59.939Z,99663.49
2017-11-30T01:36:02.415Z,99668.98
2017-11-30T01:37:04.872Z,99665.05
2017-11-30T01:38:07.357Z,99663.67
2017-11-30T01:39:09.830Z,99657.94
2017-11-30T01:40:12.288Z,99658.52
2017-11-30T01:41:14.756Z,99654.00
2017-11-30T01:42:17.223Z,99660.23
2017-11-30T01:43:19.708Z,99659.03
2017-11-30T01:44:22.184Z,99650.39
2017-11-30T01:45:24.659Z,99657.83
2017-11-30T01:46:27.125Z,99653.48
2017-11-30T01:47:29.599Z,99653.08
2017-11-30T01:48:32.103Z,99655.03
2017-11-30T01:49:34.579Z,99645.59
2017-11-30T01:50:37.032Z,99650.11
2017-11-30T01:51:39.493Z,99648.50
2017-11-30T01:52:41.971Z,99645.13
2017-11-30T01:53:44.467Z,99643.33
2017-11-30T01:54:46.942Z,99647.22
2017-11-30T01:55:49.413Z,99650.13
2017-11-30T01:56:51.891Z,99638.75
2017-11-30T01:57:54.362Z,99643.03
2017-11-30T01:58:56.859Z,99644.75
2017-11-30T01:59:59.312Z,99644.92
2017-11-30T02:01:01.777Z,99646.30
2017-11-30T02:02:04.236Z,99643.90
2017-11-30T02:03:06.688Z,99641.72
2017-11-30T02:04:09.169Z,99640.75
2017-11-30T02:05:11.632Z,99638.17
2017-11-30T02:06:14.109Z,99642.13
2017-11-30T02:07:16.572Z,99640.35
2017-11-30T02:08:19.042Z,99635.66
2017-11-30T02:09:21.534Z,99635.66
2017-11-30T02:10:24.006Z,99641.72
2017-11-30T02:11:26.463Z,99634.05
2017-11-30T02:12:28.923Z,99635.43
2017-11-30T02:13:31.403Z,99639.15
2017-11-30T02:14:33.901Z,99642.47
2017-11-30T02:15:36.379Z,99632.05
2017-11-30T02:16:38.853Z,99635.77
2017-11-30T02:17:41.330Z,99640.06
2017-11-30T02:18:43.815Z,99639.44
2017-11-30T02:19:46.300Z,99641.52
2017-11-30T02:20:48.781Z,99642.66
2017-11-30T02:21:51.255Z,99646.95
2017-11-30T02:22:53.732Z,99644.75
2017-11-30T02:23:56.215Z,99643.95
2017-11-30T02:24:58.698Z,99645.66
2017-11-30T02:26:01.160Z,99642.52
2017-11-30T02:27:03.628Z,99640.92
2017-11-30T02:28:06.107Z,99640.12
2017-11-30T02:29:08.585Z,99641.27
2017-11-30T02:30:11.075Z,99636.34
2017-11-30T02:31:13.547Z,99645.15
2017-11-30T02:32:16.030Z,99640.86
2017-11-30T02:33:18.511Z,99648.36
2017-11-30T02:34:20.990Z,99641.55
2017-11-30T02:35:23.499Z,99645.59
2017-11-30T02:36:25.960Z,99641.92
2017-11-30T02:37:28.434Z,99632.80
2017-11-30T02:38:30.905Z,99633.89
2017-11-30T02:39:33.383Z,99632.00
2017-11-30T02:40:35.868Z,99634.85
2017-11-30T02:41:38.329Z,99638.41
2017-11-30T02:42:40.810Z,99641.95
2017-11-30T02:43:43.283Z,99643.33
2017-11-30T02:44:45.741Z,99640.30
2017-11-30T02:45:48.256Z,99638.29
2017-11-30T02:46:50.729Z,99640.18
2017-11-30T02:47:53.196Z,99635.20
2017-11-30T02:48:55.684Z,99638.86
2017-11-30T02:49:58.144Z,99639.92
2017-11-30T02:51:00.655Z,99632.16
2017-11-30T02:52:03.116Z,99632.68
2017-11-30T02:53:05.583Z,99634.56
2017-11-30T02:54:08.053Z,99639.03
2017-11-30T02:55:10.535Z,99633.08
2017-11-30T02:56:13.027Z,99635.37
2017-11-30T02:57:15.492Z,99634.34
2017-11-30T02:58:17.956Z,99629.77
2017-11-30T02:59:20.433Z,99632.25
2017-11-30T03:00:22.920Z,99630.81
2017-11-30T03:01:25.422Z,99626.06
2017-11-30T03:02:27.889Z,99630.19
2017-11-30T03:03:30.366Z,99631.16
2017-11-30T03:04:32.834Z,99625.84
2017-11-30T03:05:35.305Z,99623.09
2017-11-30T03:06:37.780Z,99623.66
2017-11-30T03:07:40.259Z,99621.89
2017-11-30T03:08:42.739Z,99612.45
2017-11-30T03:09:45.200Z,99616.00
2017-11-30T03:10:47.677Z,99613.42
2017-11-30T03:11:50.166Z,99614.97
2017-11-30T03:12:52.641Z,99610.63
2017-11-30T03:13:55.104Z,99608.45
2017-11-30T03:14:57.558Z,99612.34
2017-11-30T03:16:00.078Z,99613.70
2017-11-30T03:17:02.566Z,99610.16
2017-11-30T03:18:05.016Z,99613.31
2017-11-30T03:19:07.468Z,99608.56
2017-11-30T03:20:09.951Z,99607.19
2017-11-30T03:21:12.426Z,99609.70
2017-11-30T03:22:14.926Z,99603.41
2017-11-30T03:23:17.400Z,99606.33
2017-11-30T03:24:19.866Z,99607.70
2017-11-30T03:25:22.345Z,99600.58
2017-11-30T03:26:25.143Z,99606.06
2017-11-30T03:27:27.619Z,99600.17
2017-11-30T03:28:30.095Z,99603.89
2017-11-30T03:29:32.560Z,99606.81
2017-11-30T03:30:35.026Z,99607.78
2017-11-30T03:31:37.519Z,99606.58
2017-11-30T03:32:40.019Z,99604.98
2017-11-30T03:33:42.498Z,99608.12
2017-11-30T03:34:44.955Z,99603.95
2017-11-30T03:35:47.424Z,99596.11
2017-11-30T03:36:49.906Z,99602.00
2017-11-30T03:37:52.444Z,99596.86
2017-11-30T03:38:54.922Z,99599.20
2017-11-30T03:39:57.414Z,99597.43
2017-11-30T03:40:59.892Z,99603.49
2017-11-30T03:42:02.376Z,99602.69
2017-11-30T03:43:04.924Z,99601.31
2017-11-30T03:44:07.447Z,99603.83
2017-11-30T03:45:09.945Z,99609.32
2017-11-30T03:46:12.434Z,99604.41
2017-11-30T03:47:14.922Z,99602.63
2017-11-30T03:48:17.459Z,99603.03
2017-11-30T03:49:19.970Z,99602.06
2017-11-30T03:50:22.475Z,99599.72
2017-11-30T03:51:24.974Z,99606.17
2017-11-30T03:52:27.498Z,99598.91
2017-11-30T03:53:29.969Z,99601.48
2017-11-30T03:54:32.439Z,99606.41
2017-11-30T03:55:34.916Z,99595.43
2017-11-30T03:56:37.405Z,99595.25
2017-11-30T03:57:39.886Z,99601.14
2017-11-30T03:58:42.362Z,99598.97
2017-11-30T03:59:44.835Z,99600.91
2017-11-30T04:00:47.305Z,99597.37
2017-11-30T04:01:49.769Z,99599.14
2017-11-30T04:02:52.255Z,99600.52
2017-11-30T04:03:54.754Z,99603.83
2017-11-30T04:04:57.243Z,99599.89
2017-11-30T04:05:59.726Z,99597.94
2017-11-30T04:07:02.199Z,99601.66
2017-11-30T04:08:04.671Z,99599.89
2017-11-30T04:09:07.149Z,99601.09
2017-11-30T04:10:09.616Z,99598.34
2017-11-30T04:11:12.080Z,99595.59
2017-11-30T04:12:14.541Z,99597.37
2017-11-30T04:13:17.010Z,99599.31
2017-11-30T04:14:19.488Z,99594.23
2017-11-30T04:15:21.962Z,99589.31
2017-11-30T04:16:24.423Z,99591.66
2017-11-30T04:17:26.906Z,99590.11
2017-11-30T04:18:29.375Z,99586.56
2017-11-30T04:19:31.864Z,99590.45
2017-11-30T04:20:34.336Z,99590.63
2017-11-30T04:21:36.805Z,99589.59
2017-11-30T04:22:39.260Z,99588.79
2017-11-30T04:23:41.731Z,99589.13
2017-11-30T04:24:44.209Z,99588.33
2017-11-30T04:25:46.689Z,99588.81
2017-11-30T04:26:49.161Z,99582.30
2017-11-30T04:27:51.620Z,99586.98
2017-11-30T04:28:54.084Z,99581.66
2017-11-30T04:29:56.692Z,99578.69
2017-11-30T04:30:59.177Z,99578.69
2017-11-30T04:32:01.649Z,99579.43
2017-11-30T04:33:04.112Z,99575.48
2017-11-30T04:34:06.581Z,99580.34
2017-11-30T04:35:09.090Z,99578.74
2017-11-30T04:36:11.566Z,99575.59
2017-11-30T04:37:14.042Z,99570.28
2017-11-30T04:38:16.512Z,99569.88
2017-11-30T04:39:18.987Z,99568.84
2017-11-30T04:40:21.471Z,99568.84
2017-11-30T04:41:23.945Z,99567.25
2017-11-30T04:42:26.434Z,99567.65
2017-11-30T04:43:28.908Z,99565.47
2017-11-30T04:44:31.391Z,99562.88
2017-11-30T04:45:33.873Z,99560.70
2017-11-30T04:46:36.343Z,99564.41
2017-11-30T04:47:38.819Z,99566.36
2017-11-30T04:48:41.297Z,99561.04
2017-11-30T04:49:43.767Z,99565.72
2017-11-30T04:50:46.251Z,99569.61
2017-11-30T04:51:48.729Z,99570.98
2017-11-30T04:52:51.191Z,99567.04
2017-11-30T04:53:53.653Z,99573.50
2017-11-30T04:54:56.124Z,99566.81
2017-11-30T04:55:58.599Z,99574.06
2017-11-30T04:57:01.131Z,99572.47
2017-11-30T04:58:03.610Z,99566.98
2017-11-30T04:59:06.078Z,99566.17
2017-11-30T05:00:08.546Z,99571.66
2017-11-30T05:01:11.043Z,99573.61
2017-11-30T05:02:13.527Z,99568.12
2017-11-30T05:03:15.996Z,99569.48
2017-11-30T05:04:18.465Z,99569.66
2017-11-30T05:05:20.936Z,99567.89
2017-11-30T05:06:23.437Z,99565.14
2017-11-30T05:07:25.947Z,99560.23
2017-11-30T05:08:28.403Z,99558.05
2017-11-30T05:09:30.883Z,99563.55
2017-11-30T05:10:33.344Z,99559.03
2017-11-30T05:11:35.838Z,99564.91
2017-11-30T05:12:38.315Z,99560.17
2017-11-30T05:13:40.800Z,99562.91
2017-11-30T05:14:43.295Z,99565.25
2017-11-30T05:15:45.779Z,99559.77
2017-11-30T05:16:48.261Z,99558.56
2017-11-30T05:17:50.734Z,99550.34
2017-11-30T05:18:53.207Z,99551.31
2017-11-30T05:19:55.680Z,99548.17
2017-11-30T05:20:58.138Z,99539.54
2017-11-30T05:22:00.632Z,99540.91
2017-11-30T05:23:03.107Z,99547.53
2017-11-30T05:24:05.565Z,99543.42
2017-11-30T05:25:08.029Z,99544.63
2017-11-30T05:26:10.492Z,99544.39
2017-11-30T05:27:13.003Z,99550.45
2017-11-30T05:28:15.481Z,99553.33
2017-11-30T05:29:17.954Z,99552.53
2017-11-30T05:30:20.413Z,99550.92
2017-11-30T05:31:22.881Z,99549.16
2017-11-30T05:32:25.382Z,99552.07
2017-11-30T05:33:27.851Z,99551.27
2017-11-30T05:34:30.309Z,99550.47
2017-11-30T05:35:32.819Z,99543.78
2017-11-30T05:36:35.290Z,99546.70
2017-11-30T05:37:37.770Z,99545.33
2017-11-30T05:38:40.242Z,99539.61
2017-11-30T05:39:42.730Z,99541.72
2017-11-30T05:40:45.199Z,99538.58
2017-11-30T05:41:47.660Z,99539.15
2017-11-30T05:42:50.140Z,99533.27
2017-11-30T05:43:52.605Z,99534.23
2017-11-30T05:44:55.080Z,99535.94
2017-11-30T05:45:57.542Z,99536.34
2017-11-30T05:47:00.049Z,99539.66
2017-11-30T05:48:02.548Z,99540.23
2017-11-30T05:49:05.020Z,99538.05
2017-11-30T05:50:07.485Z,99537.83
2017-11-30T05:51:09.948Z,99542.51
2017-11-30T05:52:12.428Z,99541.14
2017-11-30T05:53:14.913Z,99547.59
2017-11-30T05:54:17.386Z,99548.56
2017-11-30T05:55:19.844Z,99541.05
2017-11-30T05:56:22.318Z,99541.48
2017-11-30T05:57:24.801Z,99546.13
2017-11-30T05:58:27.285Z,99538.47
2017-11-30T05:59:29.758Z,99534.77
2017-11-30T06:00:32.237Z,99533.56
2017-11-30T06:01:34.701Z,99537.27
2017-11-30T06:02:37.161Z,99531.39
2017-11-30T06:03:39.711Z,99537.84
2017-11-30T06:04:42.174Z,99536.61
2017-11-30T06:05:44.649Z,99533.47
2017-11-30T06:06:47.138Z,99532.66
2017-11-30T06:07:49.714Z,99532.27
2017-11-30T06:08:52.203Z,99526.38
2017-11-30T06:09:54.693Z,99537.34
2017-11-30T06:10:57.156Z,99534.20
2017-11-30T06:11:59.638Z,99540.49
2017-11-30T06:13:02.127Z,99535.17
2017-11-30T06:14:04.601Z,99534.61
2017-11-30T06:15:07.099Z,99540.89
2017-11-30T06:16:09.636Z,99540.49
2017-11-30T06:17:12.243Z,99542.03
2017-11-30T06:18:14.715Z,99539.30
2017-11-30T06:19:17.177Z,99537.75
2017-11-30T06:20:19.645Z,99541.06
2017-11-30T06:21:22.121Z,99535.41
2017-11-30T06:22:24.653Z,99543.06
2017-11-30T06:23:27.151Z,99548.95
2017-11-30T06:24:29.645Z,99543.86
2017-11-30T06:25:32.095Z,99542.49
2017-11-30T06:26:34.548Z,99540.19
2017-11-30T06:27:37.004Z,99538.55
2017-11-30T06:28:39.463Z,99537.18
2017-11-30T06:29:41.953Z,99534.03
2017-11-30T06:30:44.436Z,99535.23
2017-11-30T06:31:46.899Z,99532.90
2017-11-30T06:32:49.357Z,99536.47
2017-11-30T06:33:51.834Z,99531.95
2017-11-30T06:34:54.316Z,99537.10
2017-11-30T06:35:56.772Z,99538.47
2017-11-30T06:36:59.236Z,99536.93
2017-11-30T06:38:01.719Z,99532.81
2017-11-30T06:39:04.193Z,99539.14
2017-11-30T06:40:06.696Z,99540.51
2017-11-30T06:41:09.160Z,99535.99
2017-11-30T06:42:11.636Z,99545.02
2017-11-30T06:43:14.100Z,99533.39
2017-11-30T06:44:16.556Z,99531.88
2017-11-30T06:45:19.055Z,99531.05
2017-11-30T06:46:21.552Z,99534.77
2017-11-30T06:47:24.016Z,99530.81
2017-11-30T06:48:26.474Z,99530.81
2017-11-30T06:49:28.957Z,99526.88
2017-11-30T06:50:31.442Z,99530.59
2017-11-30T06:51:33.906Z,99536.20
2017-11-30T06:52:36.398Z,99528.33
2017-11-30T06:53:38.878Z,99531.47
2017-11-30T06:54:41.328Z,99526.15
2017-11-30T06:55:43.822Z,99528.66
2017-11-30T06:56:46.295Z,99534.72
2017-11-30T06:57:48.779Z,99527.86
2017-11-30T06:58:51.249Z,99530.55
2017-11-30T06:59:53.741Z,99529.74
2017-11-30T07:00:56.239Z,99531.28
2017-11-30T07:01:58.722Z,99530.88
2017-11-30T07:03:01.191Z,99533.63
2017-11-30T07:04:03.706Z,99534.59
2017-11-30T07:05:06.194Z,99534.59
2017-11-30T07:06:08.706Z,99533.80
2017-11-30T07:07:11.164Z,99530.65
2017-11-30T07:08:13.635Z,99537.51
2017-11-30T07:09:16.117Z,99537.10
2017-11-30T07:10:18.602Z,99535.91
2017-11-30T07:11:21.092Z,99535.11
2017-11-30T07:12:23.576Z,99536.07
2017-11-30T07:13:26.065Z,99541.16
2017-11-30T07:14:28.539Z,99534.88
2017-11-30T07:15:31.018Z,99534.88
2017-11-30T07:16:33.507Z,99548.58
2017-11-30T07:17:35.964Z,99544.06
2017-11-30T07:18:38.420Z,99544.06
2017-11-30T07:19:40.907Z,99546.41
2017-11-30T07:20:43.392Z,99544.06
2017-11-30T07:21:45.892Z,99548.18
2017-11-30T07:22:48.347Z,99548.18
2017-11-30T07:23:50.827Z,99547.61
2017-11-30T07:24:53.310Z,99547.20
2017-11-30T07:25:55.792Z,99545.27
2017-11-30T07:26:58.276Z,99547.20
2017-11-30T07:28:00.773Z,99548.58
2017-11-30T07:29:03.230Z,99547.78
2017-11-30T07:30:05.688Z,99550.35
2017-11-30T07:31:08.159Z,99547.20
2017-11-30T07:32:10.640Z,99552.69
2017-11-30T07:33:13.099Z,99552.52
2017-11-30T07:34:15.581Z,99547.61
2017-11-30T07:35:18.052Z,99542.02
2017-11-30T07:36:20.539Z,99541.91
2017-11-30T07:37:23.047Z,99542.38
2017-11-30T07:38:25.520Z,99545.65
2017-11-30T07:39:27.989Z,99544.23
2017-11-30T07:40:30.466Z,99546.23
2017-11-30T07:41:32.959Z,99545.44
2017-11-30T07:42:35.457Z,99547.20
2017-11-30T07:43:37.932Z,99552.01
2017-11-30T07:44:40.395Z,99541.78
2017-11-30T07:45:42.884Z,99547.61
2017-11-30T07:46:45.357Z,99548.34
2017-11-30T07:47:47.858Z,99547.59
2017-11-30T07:48:50.320Z,99545.50
2017-11-30T07:49:52.802Z,99544.70
2017-11-30T07:50:55.277Z,99543.73
2017-11-30T07:51:57.759Z,99544.76
2017-11-30T07:53:00.267Z,99544.03
2017-11-30T07:54:02.751Z,99547.34
2017-11-30T07:55:05.246Z,99548.89
2017-11-30T07:56:07.726Z,99545.34
2017-11-30T07:57:10.206Z,99548.25
2017-11-30T07:58:12.706Z,99550.77
2017-11-30T07:59:15.182Z,99547.39
2017-11-30T08:00:17.661Z,99553.55
2017-11-30T08:01:20.123Z,99551.49
2017-11-30T08:02:22.599Z,99548.02
2017-11-30T08:03:25.155Z,99550.47
2017-11-30T08:04:27.643Z,99546.23
2017-11-30T08:05:30.117Z,99552.05
2017-11-30T08:06:32.605Z,99551.83
2017-11-30T08:07:35.087Z,99547.95
2017-11-30T08:08:37.593Z,99555.53
2017-11-30T08:09:40.085Z,99557.24
2017-11-30T08:10:42.581Z,99554.98
2017-11-30T08:11:45.075Z,99561.77
2017-11-30T08:12:47.583Z,99558.80
2017-11-30T08:13:50.103Z,99553.59
2017-11-30T08:14:52.634Z,99556.13
2017-11-30T08:15:55.131Z,99557.67
2017-11-30T08:16:57.703Z,99556.45
2017-11-30T08:18:00.184Z,99548.17
2017-11-30T08:19:02.696Z,99555.89
2017-11-30T08:20:05.353Z,99556.33
2017-11-30T08:21:07.815Z,99549.09
2017-11-30T08:22:10.283Z,99554.42
2017-11-30T08:23:12.756Z,99551.95
2017-11-30T08:24:15.251Z,99557.53
2017-11-30T08:25:17.972Z,99554.49
2017-11-30T08:26:20.449Z,99554.62
2017-11-30T08:27:22.930Z,99557.37
2017-11-30T08:28:25.403Z,99552.72
2017-11-30T08:29:27.919Z,99552.16
2017-11-30T08:30:30.400Z,99549.41
2017-11-30T08:31:32.898Z,99552.95
2017-11-30T08:32:35.383Z,99552.86
2017-11-30T08:33:37.856Z,99550.09
2017-11-30T08:34:40.364Z,99548.68
2017-11-30T08:35:42.854Z,99548.48
2017-11-30T08:36:45.341Z,99546.67
2017-11-30T08:37:47.814Z,99550.64
2017-11-30T08:38:50.302Z,99548.56
2017-11-30T08:39:52.815Z,99547.83
2017-11-30T08:40:55.330Z,99548.09
2017-11-30T08:41:57.809Z,99548.44
2017-11-30T08:43:00.299Z,99544.19
2017-11-30T08:44:02.782Z,99550.96
2017-11-30T08:45:05.296Z,99551.05
2017-11-30T08:46:07.779Z,99547.20
2017-11-30T08:47:10.272Z,99550.58
2017-11-30T08:48:12.778Z,99544.95
2017-11-30T08:49:15.277Z,99544.08
2017-11-30T08:50:17.790Z,99549.41
2017-11-30T08:51:20.275Z,99543.70
2017-11-30T08:52:22.755Z,99546.60
2017-11-30T08:53:25.227Z,99546.36
2017-11-30T08:54:27.703Z,99545.16
2017-11-30T08:55:30.208Z,99533.72
2017-11-30T08:56:32.698Z,99545.22
2017-11-30T08:57:35.185Z,99539.45
2017-11-30T08:58:37.678Z,99544.98
2017-11-30T08:59:40.168Z,99541.45
2017-11-30T09:00:42.683Z,99540.48
2017-11-30T09:01:45.156Z,99538.39
2017-11-30T09:02:47.650Z,99538.95
2017-11-30T09:03:50.127Z,99540.32
2017-11-30T09:04:52.652Z,99533.25
2017-11-30T09:05:55.150Z,99538.64
2017-11-30T09:06:57.649Z,99535.67
2017-11-30T09:08:00.160Z,99531.17
2017-11-30T09:09:02.639Z,99531.97
2017-11-30T09:10:05.125Z,99535.42
2017-11-30T09:11:07.601Z,99535.05
2017-11-30T09:12:10.085Z,99538.25
2017-11-30T09:13:12.582Z,99537.73
2017-11-30T09:14:15.078Z,99540.09
2017-11-30T09:15:17.576Z,99535.59
2017-11-30T09:16:20.061Z,99537.90
2017-11-30T09:17:22.567Z,99536.59
2017-11-30T09:18:25.055Z,99534.88
2017-11-30T09:19:27.551Z,99536.20
2017-11-30T09:20:30.048Z,99537.52
2017-11-30T09:21:32.526Z,99536.47
2017-11-30T09:22:35.012Z,99535.44
2017-11-30T09:23:37.548Z,99531.00
2017-11-30T09:24:40.042Z,99531.22
2017-11-30T09:25:42.538Z,99528.27
2017-11-30T09:26:45.050Z,99532.90
2017-11-30T09:27:47.534Z,99522.57
2017-11-30T09:28:50.008Z,99524.41
2017-11-30T09:29:52.547Z,99527.50
2017-11-30T09:30:55.034Z,99521.09
2017-11-30T09:31:57.550Z,99523.50
2017-11-30T09:33:00.024Z,99522.88
2017-11-30T09:34:02.513Z,99519.04
2017-11-30T09:35:05.016Z,99521.09
2017-11-30T09:36:07.504Z,99521.37
2017-11-30T09:37:10.002Z,99518.31
2017-11-30T09:38:12.484Z,99522.09
2017-11-30T09:39:15.001Z,99513.75
2017-11-30T09:40:17.478Z,99519.74
2017-11-30T09:41:19.954Z,99521.39
2017-11-30T09:42:22.429Z,99522.84
2017-11-30T09:43:24.907Z,99516.09
2017-11-30T09:44:27.430Z,99522.48
2017-11-30T09:45:29.979Z,99517.52
2017-11-30T09:46:32.450Z,99521.73
2017-11-30T09:47:34.956Z,99523.05
2017-11-30T09:48:37.454Z,99522.58
2017-11-30T09:49:39.953Z,99521.95
2017-11-30T09:50:42.436Z,99523.80
2017-11-30T09:51:45.711Z,99528.64
2017-11-30T09:52:48.266Z,99530.75
2017-11-30T09:53:50.762Z,99522.87
2017-11-30T09:54:53.258Z,99519.89
2017-11-30T09:55:55.735Z,99526.11
2017-11-30T09:56:58.221Z,99520.00
2017-11-30T09:58:00.816Z,99514.29
2017-11-30T09:59:03.372Z,99510.52
2017-11-30T10:00:05.861Z,99512.45
2017-11-30T10:01:08.420Z,99515.03
2017-11-30T10:02:10.904Z,99509.67
2017-11-30T10:03:13.372Z,99512.14
2017-11-30T10:04:15.914Z,99512.03
2017-11-30T10:05:18.384Z,99505.34
2017-11-30T10:06:20.856Z,99508.48
2017-11-30T10:07:23.397Z,99503.17
2017-11-30T10:08:25.878Z,99506.09
2017-11-30T10:09:28.348Z,99505.28
2017-11-30T10:10:30.820Z,99502.72
2017-11-30T10:11:33.310Z,99499.11
2017-11-30T10:12:35.810Z,99502.02
2017-11-30T10:13:38.310Z,99500.59
2017-11-30T10:14:40.801Z,99508.58
2017-11-30T10:15:43.291Z,99504.41
2017-11-30T10:16:45.781Z,99497.32
2017-11-30T10:17:48.276Z,99500.20
2017-11-30T10:18:50.753Z,99498.59
2017-11-30T10:19:53.262Z,99497.56
2017-11-30T10:20:55.738Z,99496.53
2017-11-30T10:21:58.248Z,99496.30
2017-11-30T10:23:00.767Z,99498.00
2017-11-30T10:24:03.478Z,99486.02
2017-11-30T10:25:05.965Z,99496.17
2017-11-30T10:26:08.458Z,99492.17
2017-11-30T10:27:10.947Z,99501.52
2017-11-30T10:28:13.416Z,99497.02
2017-11-30T10:29:16.103Z,99488.73
2017-11-30T10:30:18.595Z,99497.66
2017-11-30T10:31:21.104Z,99498.39
2017-11-30T10:32:23.620Z,99493.08
2017-11-30T10:33:26.061Z,99497.53
2017-11-30T10:34:28.532Z,99496.50
2017-11-30T10:35:30.997Z,99493.52
2017-11-30T10:36:33.489Z,99490.16
2017-11-30T10:37:35.978Z,99492.26
2017-11-30T10:38:38.435Z,99486.55
2017-11-30T10:39:40.924Z,99490.66
2017-11-30T10:40:43.472Z,99491.39
2017-11-30T10:41:45.957Z,99483.91
2017-11-30T10:42:48.441Z,99486.02
2017-11-30T10:43:50.943Z,99485.36
2017-11-30T10:44:53.432Z,99486.89
2017-11-30T10:45:55.895Z,99481.18
2017-11-30T10:46:58.363Z,99483.13
2017-11-30T10:48:00.844Z,99482.89
2017-11-30T10:49:03.334Z,99483.63
2017-11-30T10:50:05.824Z,99479.69
2017-11-30T10:51:08.299Z,99480.66
2017-11-30T10:52:10.770Z,99478.08
2017-11-30T10:53:13.244Z,99471.97
2017-11-30T10:54:15.766Z,99479.38
2017-11-30T10:55:18.228Z,99473.28
2017-11-30T10:56:20.709Z,99475.21
2017-11-30T10:57:23.179Z,99474.01
2017-11-30T10:58:25.653Z,99472.01
2017-11-30T10:59:28.136Z,99472.81
2017-11-30T11:00:30.615Z,99472.74
2017-11-30T11:01:33.094Z,99470.14
2017-11-30T11:02:35.560Z,99469.74
2017-11-30T11:03:38.029Z,99464.03
2017-11-30T11:04:40.501Z,99466.38
2017-11-30T11:05:43.010Z,99463.56
2017-11-30T11:06:45.499Z,99465.34
2017-11-30T11:07:48.002Z,99465.91
2017-11-30T11:08:50.484Z,99459.63
2017-11-30T11:09:53.001Z,99461.16
2017-11-30T11:10:55.491Z,99463.27
2017-11-30T11:11:57.983Z,99463.44
2017-11-30T11:13:00.463Z,99459.90
2017-11-30T11:14:02.943Z,99465.94
2017-11-30T11:15:05.426Z,99462.00
2017-11-30T11:16:07.930Z,99461.20
2017-11-30T11:17:10.414Z,99465.11
2017-11-30T11:18:12.897Z,99466.87
2017-11-30T11:19:15.378Z,99461.13
2017-11-30T11:20:17.859Z,99462.39
2017-11-30T11:21:20.348Z,99464.28
2017-11-30T11:22:22.836Z,99458.37
2017-11-30T11:23:26.238Z,99460.30
2017-11-30T11:24:28.721Z,99461.33
2017-11-30T11:25:31.214Z,99460.19
2017-11-30T11:26:33.697Z,99455.11
2017-11-30T11:27:36.189Z,99459.79
2017-11-30T11:28:38.685Z,99465.84
2017-11-30T11:29:41.173Z,99457.16
2017-11-30T11:30:43.644Z,99460.23
2017-11-30T11:31:46.134Z,99456.42
2017-11-30T11:32:48.627Z,99456.77
2017-11-30T11:33:51.112Z,99454.94
2017-11-30T11:34:53.588Z,99454.30
2017-11-30T11:35:56.048Z,99456.17
2017-11-30T11:36:58.520Z,99459.48
2017-11-30T11:38:00.997Z,99457.08
2017-11-30T11:39:03.471Z,99450.00
2017-11-30T11:40:05.958Z,99452.11
2017-11-30T11:41:08.492Z,99453.41
2017-11-30T11:42:10.986Z,99451.41
2017-11-30T11:43:13.470Z,99451.95
2017-11-30T11:44:15.949Z,99449.38
2017-11-30T11:45:18.454Z,99446.00
2017-11-30T11:46:20.920Z,99452.05
2017-11-30T11:47:23.388Z,99450.28
2017-11-30T11:48:25.879Z,99448.84
2017-11-30T11:49:28.350Z,99452.22
2017-11-30T11:50:30.837Z,99449.94
2017-11-30T11:51:33.312Z,99451.37
2017-11-30T11:52:35.783Z,99447.69
2017-11-30T11:53:38.270Z,99437.52
2017-11-30T11:54:40.739Z,99446.09
2017-11-30T11:55:43.216Z,99443.88
2017-11-30T11:56:45.693Z,99442.23
2017-11-30T11:57:48.168Z,99442.56
2017-11-30T11:58:50.635Z,99441.42
2017-11-30T11:59:53.104Z,99442.63
2017-11-30T12:00:55.591Z,99442.28
2017-11-30T12:01:58.071Z,99443.89
2017-11-30T12:03:00.567Z,99443.55
2017-11-30T12:04:03.043Z,99440.47
2017-11-30T12:05:05.544Z,99439.90
2017-11-30T12:06:08.038Z,99445.61
2017-11-30T12:07:10.504Z,99440.93
2017-11-30T12:08:13.007Z,99439.79
2017-11-30T12:09:15.475Z,99438.82
2017-11-30T12:10:17.963Z,99437.45
2017-11-30T12:11:20.433Z,99439.63
2017-11-30T12:12:22.914Z,99438.08
2017-11-30T12:13:25.384Z,99437.28
2017-11-30T12:14:27.852Z,99434.88